createdAt,value
2023-04-25T00:02:08.383Z,3.05
2023-04-25T00:04:51.201Z,4.88
2023-04-25T00:07:34.211Z,6.82
2023-04-25T00:10:18.280Z,11.50
2023-04-25T00:13:03.414Z,6.97
2023-04-25T00:15:49.122Z,8.20
2023-04-25T00:18:34.123Z,6.32
2023-04-25T00:21:19.084Z,7.18
2023-04-25T00:24:01.830Z,5.80
2023-04-25T00:26:46.115Z,8.70
2023-04-25T00:29:28.816Z,6.05
2023-04-25T00:32:11.504Z,6.65
2023-04-25T00:34:54.169Z,6.80
2023-04-25T00:37:36.827Z,6.90
2023-04-25T00:40:19.575Z,11.38
2023-04-25T00:43:03.637Z,8.80
2023-04-25T00:45:48.865Z,8.55
2023-04-25T00:48:32.007Z,10.05
2023-04-25T00:51:17.844Z,9.82
2023-04-25T00:54:00.679Z,8.13
2023-04-25T00:56:43.560Z,7.28
2023-04-25T00:59:28.232Z,7.38
2023-04-25T01:02:10.977Z,7.95
2023-04-25T01:04:53.861Z,8.98
2023-04-25T01:07:36.499Z,5.32
2023-04-25T01:10:19.175Z,6.80
2023-04-25T01:13:02.588Z,11.35
2023-04-25T01:15:46.610Z,6.40
2023-04-25T01:18:29.305Z,11.65
2023-04-25T01:21:14.110Z,9.27
2023-04-25T01:23:57.008Z,6.32
2023-04-25T01:26:40.923Z,5.40
2023-04-25T01:29:24.297Z,9.93
2023-04-25T01:32:07.593Z,11.40
2023-04-25T01:34:50.435Z,8.93
2023-04-25T01:37:34.943Z,10.10
2023-04-25T01:40:18.406Z,8.93
2023-04-25T01:43:01.659Z,10.38
2023-04-25T01:45:44.567Z,13.88
2023-04-25T01:48:28.141Z,8.38
2023-04-25T01:51:12.470Z,11.18
2023-04-25T01:53:57.317Z,7.70
2023-04-25T01:56:41.388Z,9.63
2023-04-25T01:59:26.914Z,10.27
2023-04-25T02:02:22.225Z,7.28
2023-04-25T02:05:05.155Z,12.60
2023-04-25T02:07:50.450Z,7.82
2023-04-25T02:10:35.173Z,6.85
2023-04-25T02:13:31.625Z,9.43
2023-04-25T02:16:31.991Z,10.13
2023-04-25T02:19:16.479Z,9.90
2023-04-25T02:21:59.198Z,10.85
2023-04-25T02:24:41.868Z,9.48
2023-04-25T02:27:25.919Z,11.13
2023-04-25T02:30:09.134Z,7.50
2023-04-25T02:32:52.126Z,10.50
2023-04-25T02:35:34.808Z,8.75
2023-04-25T02:38:17.482Z,10.63
2023-04-25T02:41:00.190Z,11.95
2023-04-25T02:43:44.234Z,10.52
2023-04-25T02:46:38.505Z,8.88
2023-04-25T02:49:22.281Z,6.97
2023-04-25T02:52:04.926Z,7.00
2023-04-25T02:54:47.626Z,9.32
2023-04-25T02:57:30.304Z,8.73
2023-04-25T03:00:16.790Z,12.07
2023-04-25T03:02:59.698Z,7.53
2023-04-25T03:05:42.444Z,9.00
2023-04-25T03:08:26.167Z,10.18
2023-04-25T03:11:09.897Z,6.75
2023-04-25T03:13:52.775Z,9.88
2023-04-25T03:16:37.821Z,13.65
2023-04-25T03:19:21.363Z,8.23
2023-04-25T03:22:04.193Z,11.35
2023-04-25T03:24:46.883Z,11.93
2023-04-25T03:27:30.374Z,9.30
2023-04-25T03:30:13.207Z,8.05
2023-04-25T03:32:59.258Z,13.30
2023-04-25T03:35:43.510Z,7.97
2023-04-25T03:38:26.795Z,9.50
2023-04-25T03:41:09.535Z,9.27
2023-04-25T03:43:58.775Z,11.68
2023-04-25T03:46:42.868Z,8.70
2023-04-25T03:49:26.995Z,10.38
2023-04-25T03:52:16.586Z,6.60
2023-04-25T03:55:01.340Z,7.93
2023-04-25T03:57:44.500Z,9.38
2023-04-25T04:00:27.353Z,14.32
2023-04-25T04:03:10.164Z,8.13
2023-04-25T04:05:54.442Z,6.93
2023-04-25T04:08:37.480Z,7.65
2023-04-25T04:11:20.185Z,6.10
2023-04-25T04:14:03.517Z,8.05
2023-04-25T04:16:46.752Z,6.47
2023-04-25T04:19:29.672Z,7.35
2023-04-25T04:22:23.778Z,7.50
2023-04-25T04:25:08.625Z,9.18
2023-04-25T04:28:14.496Z,10.00
2023-04-25T04:31:05.871Z,5.53
2023-04-25T04:33:49.577Z,10.23
2023-04-25T04:36:33.188Z,6.13
2023-04-25T04:39:17.339Z,4.60
2023-04-25T04:42:20.247Z,4.93
2023-04-25T04:45:19.144Z,7.65
2023-04-25T04:48:22.269Z,7.72
2023-04-25T04:51:25.167Z,6.28
2023-04-25T04:54:10.426Z,9.25
2023-04-25T04:57:26.859Z,10.93
2023-04-25T05:00:33.039Z,9.40
2023-04-25T05:03:38.962Z,4.82
2023-04-25T05:06:50.922Z,6.60
2023-04-25T05:09:42.667Z,8.27
2023-04-25T05:12:38.883Z,10.93
2023-04-25T05:15:39.956Z,6.07
2023-04-25T05:18:41.254Z,5.70
2023-04-25T05:21:44.070Z,8.40
2023-04-25T05:24:45.396Z,5.70
2023-04-25T05:27:42.515Z,5.68
2023-04-25T05:30:51.621Z,4.60
2023-04-25T05:33:43.598Z,4.65
2023-04-25T05:36:26.630Z,5.80
2023-04-25T05:39:10.173Z,3.67
2023-04-25T05:42:11.395Z,5.05
2023-04-25T05:45:14.301Z,6.90
2023-04-25T05:48:32.147Z,4.63
2023-04-25T05:51:26.949Z,7.68
2023-04-25T05:54:28.938Z,4.53
2023-04-25T05:57:24.349Z,4.47
2023-04-25T06:00:10.238Z,5.65
2023-04-25T06:03:02.420Z,6.43
2023-04-25T06:05:45.555Z,7.43
2023-04-25T06:08:28.321Z,5.10
2023-04-25T06:11:11.007Z,7.25
2023-04-25T06:13:54.037Z,7.55
2023-04-25T06:16:36.860Z,4.78
2023-04-25T06:19:20.888Z,4.88
2023-04-25T06:22:03.763Z,4.35
2023-04-25T06:24:47.919Z,4.20
2023-04-25T06:27:30.598Z,7.90
2023-04-25T06:30:13.815Z,7.22
2023-04-25T06:32:56.681Z,6.68
2023-04-25T06:35:41.370Z,7.18
2023-04-25T06:38:27.208Z,4.03
2023-04-25T06:41:12.746Z,4.78
2023-04-25T06:43:55.398Z,6.13
2023-04-25T06:46:46.164Z,5.15
2023-04-25T06:49:30.323Z,4.47
2023-04-25T06:52:14.715Z,7.22
2023-04-25T06:54:58.262Z,6.60
2023-04-25T06:57:52.873Z,8.80
2023-04-25T07:00:54.383Z,9.55
2023-04-25T07:03:39.700Z,5.90
2023-04-25T07:06:28.912Z,6.47
2023-04-25T07:09:13.746Z,7.78
2023-04-25T07:11:58.805Z,6.43
2023-04-25T07:14:41.472Z,4.03
2023-04-25T07:17:25.767Z,2.67
2023-04-25T07:20:10.290Z,2.58
2023-04-25T07:22:53.061Z,4.28
2023-04-25T07:25:37.393Z,4.72
2023-04-25T07:28:21.229Z,5.90
2023-04-25T07:31:04.627Z,3.83
2023-04-25T07:33:48.357Z,4.05
2023-04-25T07:36:31.935Z,6.20
2023-04-25T07:39:14.805Z,4.78
2023-04-25T07:42:01.645Z,3.38
2023-04-25T07:44:46.136Z,4.63
2023-04-25T07:47:30.731Z,4.78
2023-04-25T07:50:13.544Z,4.63
2023-04-25T07:52:56.978Z,5.47
2023-04-25T07:55:45.505Z,2.67
2023-04-25T07:58:33.296Z,3.80
2023-04-25T08:01:18.643Z,3.53
2023-04-25T08:04:09.681Z,4.13
2023-04-25T08:07:06.762Z,4.10
2023-04-25T08:09:57.584Z,5.07
2023-04-25T08:12:45.462Z,3.20
2023-04-25T08:15:29.989Z,8.27
2023-04-25T08:18:14.175Z,6.50
2023-04-25T08:20:58.661Z,3.38
2023-04-25T08:23:41.766Z,3.45
2023-04-25T08:26:40.156Z,6.15
2023-04-25T08:29:26.447Z,3.88
2023-04-25T08:32:10.611Z,4.93
2023-04-25T08:34:58.861Z,4.63
2023-04-25T08:37:42.438Z,4.97
2023-04-25T08:40:31.078Z,2.50
2023-04-25T08:43:25.411Z,8.18
2023-04-25T08:46:08.074Z,4.75
2023-04-25T08:49:02.630Z,4.00
2023-04-25T08:51:47.512Z,7.55
2023-04-25T08:54:34.280Z,3.15
2023-04-25T08:57:19.254Z,8.00
2023-04-25T09:00:03.988Z,5.22
2023-04-25T09:02:49.389Z,6.43
2023-04-25T09:05:34.299Z,3.22
2023-04-25T09:08:16.974Z,5.53
2023-04-25T09:10:59.733Z,4.70
2023-04-25T09:13:44.513Z,8.38
2023-04-25T09:16:27.170Z,6.18
2023-04-25T09:22:22.265Z,5.18
2023-04-25T09:25:05.595Z,6.00
2023-04-25T09:27:53.015Z,3.53
2023-04-25T09:30:41.274Z,5.47
2023-04-25T09:33:36.717Z,3.90
2023-04-25T09:36:20.469Z,1.55
2023-04-25T09:39:17.320Z,4.38
2023-04-25T09:42:07.445Z,4.82
2023-04-25T09:44:52.246Z,5.55
2023-04-25T09:47:39.781Z,6.05
2023-04-25T09:50:25.876Z,5.95
2023-04-25T09:53:17.792Z,4.45
2023-04-25T09:56:14.698Z,6.80
2023-04-25T09:58:57.936Z,3.00
2023-04-25T10:01:41.931Z,5.57
2023-04-25T10:04:31.571Z,3.72
2023-04-25T10:07:22.759Z,1.52
2023-04-25T10:10:06.944Z,2.78
2023-04-25T10:12:51.137Z,4.10
2023-04-25T10:15:36.003Z,3.50
2023-04-25T10:18:20.947Z,2.63
2023-04-25T10:21:05.141Z,4.35
2023-04-25T10:23:48.190Z,3.97
2023-04-25T10:26:31.379Z,4.50
2023-04-25T10:29:23.241Z,3.85
2023-04-25T10:32:06.354Z,4.85
2023-04-25T10:34:49.551Z,3.13
2023-04-25T10:37:32.239Z,3.72
2023-04-25T10:40:15.493Z,3.65
2023-04-25T10:43:18.164Z,3.78
2023-04-25T10:46:02.650Z,4.28
2023-04-25T10:48:51.772Z,2.33
2023-04-25T10:51:51.638Z,4.95
2023-04-25T10:54:41.919Z,2.45
2023-04-25T10:57:34.629Z,5.47
2023-04-25T11:00:18.349Z,5.72
2023-04-25T11:03:02.424Z,2.97
2023-04-25T11:05:55.450Z,3.55
2023-04-25T11:08:49.561Z,4.93
2023-04-25T11:11:32.371Z,2.55
2023-04-25T11:14:15.032Z,4.13
2023-04-25T11:17:00.159Z,3.97
2023-04-25T11:19:44.990Z,4.70
2023-04-25T11:22:28.920Z,3.28
2023-04-25T11:25:12.693Z,3.70
2023-04-25T11:27:56.815Z,6.63
2023-04-25T11:30:39.637Z,2.47
2023-04-25T11:33:25.456Z,2.75
2023-04-25T11:36:10.131Z,5.65
2023-04-25T11:38:53.308Z,4.75
2023-04-25T11:41:36.070Z,3.08
2023-04-25T11:44:18.987Z,4.10
2023-04-25T11:47:01.660Z,3.63
2023-04-25T11:49:44.340Z,3.20
2023-04-25T11:52:36.951Z,4.70
2023-04-25T11:55:20.511Z,4.13
2023-04-25T11:58:03.355Z,3.28
2023-04-25T12:00:50.494Z,5.43
2023-04-25T12:03:34.439Z,3.13
2023-04-25T12:06:19.519Z,4.15
2023-04-25T12:09:05.232Z,3.08
2023-04-25T12:11:48.784Z,2.95
2023-04-25T12:14:32.401Z,2.22
2023-04-25T12:17:15.112Z,1.98
2023-04-25T12:19:57.763Z,2.88
2023-04-25T12:22:45.536Z,4.57
2023-04-25T12:25:39.430Z,4.57
2023-04-25T12:28:24.583Z,2.58
2023-04-25T12:31:07.969Z,4.47
2023-04-25T12:33:50.742Z,5.38
2023-04-25T12:36:33.560Z,5.40
2023-04-25T12:39:16.629Z,1.73
2023-04-25T12:42:00.760Z,4.35
2023-04-25T12:44:43.507Z,2.60
2023-04-25T12:47:26.194Z,1.58
2023-04-25T12:50:09.591Z,3.88
2023-04-25T12:52:52.179Z,8.02
2023-04-25T12:55:34.823Z,5.00
2023-04-25T12:58:19.517Z,4.07
2023-04-25T13:01:02.238Z,7.47
2023-04-25T13:03:45.302Z,2.42
2023-04-25T13:06:28.289Z,7.15
2023-04-25T13:09:12.481Z,2.60
2023-04-25T13:11:57.209Z,6.13
2023-04-25T13:14:43.263Z,3.42
2023-04-25T13:17:28.624Z,6.25
2023-04-25T13:20:11.969Z,6.28
2023-04-25T13:22:54.591Z,3.55
2023-04-25T13:25:37.223Z,3.60
2023-04-25T13:28:19.931Z,4.78
2023-04-25T13:31:03.964Z,6.00
2023-04-25T13:33:46.665Z,3.33
2023-04-25T13:36:30.018Z,2.65
2023-04-25T13:39:13.225Z,5.05
2023-04-25T13:41:57.021Z,6.50
2023-04-25T13:44:39.731Z,3.65
2023-04-25T13:47:26.126Z,8.57
2023-04-25T13:50:09.420Z,5.57
2023-04-25T13:52:52.469Z,5.70
2023-04-25T13:55:36.507Z,11.05
2023-04-25T13:58:19.164Z,4.50
2023-04-25T14:01:01.855Z,3.28
2023-04-25T14:03:46.448Z,5.82
2023-04-25T14:06:29.379Z,6.38
2023-04-25T14:09:13.554Z,4.95
2023-04-25T14:11:56.684Z,3.03
2023-04-25T14:14:39.915Z,3.40
2023-04-25T14:17:25.538Z,4.93
2023-04-25T14:20:11.897Z,3.15
2023-04-25T14:22:55.569Z,5.97
2023-04-25T14:25:38.825Z,2.28
2023-04-25T14:28:21.809Z,3.70
2023-04-25T14:31:04.856Z,2.50
2023-04-25T14:33:47.594Z,1.88
2023-04-25T14:36:32.926Z,5.38
2023-04-25T14:39:16.014Z,4.05
2023-04-25T14:41:58.802Z,5.93
2023-04-25T14:44:41.550Z,3.40
2023-04-25T14:47:24.244Z,3.63
2023-04-25T14:50:07.547Z,2.90
2023-04-25T14:52:51.542Z,1.88
2023-04-25T14:55:34.202Z,2.10
2023-04-25T14:58:16.969Z,4.95
2023-04-25T15:00:59.693Z,4.15
2023-04-25T15:03:42.873Z,4.18
2023-04-25T15:06:27.516Z,4.38
2023-04-25T15:09:11.831Z,3.65
2023-04-25T15:11:54.557Z,3.90
2023-04-25T15:14:37.225Z,4.80
2023-04-25T15:17:19.912Z,3.65
2023-04-25T15:20:02.615Z,3.00
2023-04-25T15:22:46.128Z,2.15
2023-04-25T15:25:30.523Z,3.35
2023-04-25T15:28:14.778Z,3.75
2023-04-25T15:30:57.448Z,2.85
2023-04-25T15:33:40.129Z,3.90
2023-04-25T15:36:22.916Z,3.78
2023-04-25T15:39:05.768Z,1.77
2023-04-25T15:41:49.796Z,3.45
2023-04-25T15:44:32.461Z,5.35
2023-04-25T15:47:15.127Z,4.32
2023-04-25T15:49:57.848Z,4.05
2023-04-25T15:52:40.991Z,3.40
2023-04-25T15:55:26.629Z,2.85
2023-04-25T15:58:12.664Z,4.45
2023-04-25T16:00:56.992Z,3.17
2023-04-25T16:03:40.337Z,4.63
2023-04-25T16:06:24.002Z,4.68
2023-04-25T16:09:06.647Z,4.72
2023-04-25T16:11:50.527Z,2.83
2023-04-25T16:14:35.297Z,3.03
2023-04-25T16:17:17.950Z,1.95
2023-04-25T16:20:01.856Z,3.15
2023-04-25T16:22:44.642Z,3.15
2023-04-25T16:25:27.644Z,4.32
2023-04-25T16:28:10.356Z,4.75
2023-04-25T16:30:54.388Z,4.18
2023-04-25T16:33:37.099Z,3.70
2023-04-25T16:36:19.737Z,3.33
2023-04-25T16:39:02.384Z,3.97
2023-04-25T16:41:45.172Z,3.92
2023-04-25T16:44:27.926Z,4.00
2023-04-25T16:47:14.477Z,3.72
2023-04-25T16:50:00.969Z,2.83
2023-04-25T16:52:44.621Z,1.08
2023-04-25T16:55:27.382Z,2.47
2023-04-25T16:58:11.910Z,6.28
2023-04-25T17:00:54.861Z,2.13
2023-04-25T17:03:39.006Z,5.30
2023-04-25T17:06:21.746Z,1.55
2023-04-25T17:09:05.780Z,2.10
2023-04-25T17:11:49.089Z,2.10
2023-04-25T17:14:32.997Z,3.78
2023-04-25T17:17:15.617Z,2.65
2023-04-25T17:19:59.587Z,5.35
2023-04-25T17:22:42.329Z,2.70
2023-04-25T17:25:24.989Z,3.83
2023-04-25T17:28:07.646Z,4.20
2023-04-25T17:30:50.369Z,3.65
2023-04-25T17:33:33.023Z,2.92
2023-04-25T17:36:17.100Z,3.83
2023-04-25T17:38:59.873Z,7.07
2023-04-25T17:41:42.601Z,2.20
2023-04-25T17:44:26.263Z,2.53
2023-04-25T17:47:09.867Z,4.00
2023-04-25T17:49:52.544Z,1.25
2023-04-25T17:52:38.508Z,5.40
2023-04-25T17:55:21.181Z,3.80
2023-04-25T17:58:03.993Z,3.30
2023-04-25T18:00:46.730Z,3.80
2023-04-25T18:03:29.444Z,4.82
2023-04-25T18:06:12.158Z,4.88
2023-04-25T18:08:57.120Z,3.58
2023-04-25T18:11:39.853Z,2.72
2023-04-25T18:14:22.766Z,1.38
2023-04-25T18:17:07.144Z,3.83
2023-04-25T18:19:50.996Z,5.28
2023-04-25T18:22:33.847Z,2.08
2023-04-25T18:25:18.302Z,2.97
2023-04-25T18:28:00.962Z,4.57
2023-04-25T18:30:44.525Z,2.53
2023-04-25T18:33:27.280Z,3.10
2023-04-25T18:36:09.893Z,3.72
2023-04-25T18:38:56.206Z,3.45
2023-04-25T18:41:52.068Z,4.70
2023-04-25T18:44:40.793Z,3.90
2023-04-25T18:47:23.375Z,7.53
2023-04-25T18:50:06.892Z,6.43
2023-04-25T18:52:49.561Z,4.32
2023-04-25T18:55:32.454Z,3.10
2023-04-25T18:58:16.471Z,3.17
2023-04-25T19:00:59.161Z,4.93
2023-04-25T19:03:42.027Z,4.80
2023-04-25T19:06:25.863Z,2.47
2023-04-25T19:09:10.201Z,2.45
2023-04-25T19:11:52.983Z,8.13
2023-04-25T19:14:37.047Z,2.78
2023-04-25T19:17:20.030Z,4.28
2023-04-25T19:20:03.023Z,2.17
2023-04-25T19:22:45.894Z,7.65
2023-04-25T19:25:28.652Z,5.57
2023-04-25T19:28:12.947Z,5.18
2023-04-25T19:30:57.275Z,4.03
2023-04-25T19:33:41.156Z,3.30
2023-04-25T19:36:25.152Z,3.47
2023-04-25T19:39:08.359Z,4.88
2023-04-25T19:41:51.021Z,6.32
2023-04-25T19:44:33.759Z,6.85
2023-04-25T19:47:17.740Z,6.05
2023-04-25T19:50:00.369Z,4.95
2023-04-25T19:52:43.072Z,4.15
2023-04-25T19:55:26.519Z,2.42
2023-04-25T19:58:09.131Z,5.88
2023-04-25T20:00:52.376Z,5.70
2023-04-25T20:03:36.477Z,5.95
2023-04-25T20:06:19.233Z,3.47
2023-04-25T20:09:04.176Z,3.55
2023-04-25T20:11:46.956Z,5.10
2023-04-25T20:14:30.870Z,3.05
2023-04-25T20:17:14.927Z,4.63
2023-04-25T20:19:59.169Z,5.18
2023-04-25T20:22:41.856Z,3.80
2023-04-25T20:25:24.544Z,3.72
2023-04-25T20:28:07.274Z,4.18
2023-04-25T20:30:50.413Z,4.85
2023-04-25T20:33:33.039Z,5.30
2023-04-25T20:36:17.055Z,4.45
2023-04-25T20:38:59.716Z,4.72
2023-04-25T20:41:44.645Z,4.32
2023-04-25T20:44:27.291Z,4.40
2023-04-25T20:47:10.276Z,3.53
2023-04-25T20:49:52.967Z,4.47
2023-04-25T20:52:37.384Z,5.28
2023-04-25T20:55:20.050Z,3.72
2023-04-25T20:58:03.222Z,3.22
2023-04-25T21:00:47.462Z,4.43
2023-04-25T21:03:30.731Z,6.07
2023-04-25T21:06:13.475Z,3.92
2023-04-25T21:08:57.493Z,3.45
2023-04-25T21:11:40.257Z,5.82
2023-04-25T21:14:25.329Z,5.05
2023-04-25T21:17:07.957Z,2.65
2023-04-25T21:19:50.589Z,1.85
2023-04-25T21:22:34.576Z,1.33
2023-04-25T21:25:21.247Z,3.08
2023-04-25T21:28:03.929Z,2.47
2023-04-25T21:30:46.648Z,1.15
2023-04-25T21:33:29.313Z,3.25
2023-04-25T21:36:12.115Z,3.53
2023-04-25T21:38:55.187Z,2.42
2023-04-25T21:41:40.281Z,1.45
2023-04-25T21:44:22.908Z,1.17
2023-04-25T21:47:05.903Z,2.65
2023-04-25T21:49:48.542Z,4.80
2023-04-25T21:52:31.501Z,3.28
2023-04-25T21:55:14.090Z,2.05
2023-04-25T21:58:01.460Z,2.40
2023-04-25T22:00:44.388Z,2.90
2023-04-25T22:03:27.145Z,2.38
2023-04-25T22:06:09.903Z,3.13
2023-04-25T22:08:52.817Z,5.53
2023-04-25T22:11:36.656Z,3.35
2023-04-25T22:14:20.914Z,4.25
2023-04-25T22:17:04.902Z,7.07
2023-04-25T22:19:47.982Z,1.55
2023-04-25T22:22:31.421Z,3.70
2023-04-25T22:25:14.035Z,2.35
2023-04-25T22:27:57.304Z,6.78
2023-04-25T22:30:41.562Z,2.53
2023-04-25T22:33:24.225Z,4.30
2023-04-25T22:36:07.041Z,2.42
2023-04-25T22:38:49.932Z,3.17
2023-04-25T22:41:32.935Z,4.25
2023-04-25T22:44:15.598Z,3.30
2023-04-25T22:46:59.604Z,2.83
2023-04-25T22:49:42.208Z,3.80
2023-04-25T22:52:24.840Z,1.30
2023-04-25T22:55:07.833Z,3.55
2023-04-25T22:57:50.638Z,3.03
2023-04-25T23:00:34.354Z,4.47
2023-04-25T23:03:19.274Z,2.65
2023-04-25T23:06:02.252Z,1.20
2023-04-25T23:08:45.320Z,2.28
2023-04-25T23:11:27.940Z,3.92
2023-04-25T23:14:10.644Z,3.05
2023-04-25T23:16:55.289Z,3.10
2023-04-25T23:19:39.344Z,3.10
2023-04-25T23:22:21.959Z,3.65
2023-04-25T23:25:05.015Z,2.33
2023-04-25T23:27:48.332Z,1.77
2023-04-25T23:30:31.887Z,2.55
2023-04-25T23:33:14.500Z,1.75
2023-04-25T23:35:58.472Z,2.97
2023-04-25T23:38:41.620Z,2.67
2023-04-25T23:41:25.248Z,5.80
2023-04-25T23:44:08.876Z,2.97
2023-04-25T23:46:51.509Z,2.75
2023-04-25T23:49:34.111Z,3.47
2023-04-25T23:52:18.070Z,3.72
2023-04-25T23:55:01.028Z,3.38
2023-04-25T23:57:44.468Z,5.50
